首页
METAR-TAF:

METAR-TAF

机场 :

伊萨卡, 紐約州, 美国

纬度: 42-29N, 经度: 076-27W, 海拔: 335米

当前天气观测

该预报发布于11分钟前的18:56 UTC
风速10节,风向,有时为17节阵风
温度 28°C
湿度 58%
气压 1010 hPa
能見度: 16.1公里
多云层高于4000英尺

METAR: KITH 291856Z 19010G17KT 10SM BKN040 28/19 A2983 RMK AO2 SLP090 T02780194

时间: 15:07 (19:07 UTC)

预报

该预报发布于1小时和47分钟前的17:20 UTC
预报有效从29日的 18点(UTC)到 30日的 18点(UTC)
风速10节,风向南转西南,有时为20节阵风
能見度: 10公里
多云层高于2500英尺
短暂存在
从 29日的 19点(UTC)到 29日的 23点(UTC)
能見度: 6.4公里
阴天层高于1500英尺, 积雨云.
雷暴, 雨, 冰雹
从 30日的 0300点(UTC)
风速7节,风向西转西北
能見度: 10公里
多云层高于2500英尺
从 30日的 1200点(UTC)
风速8节,风向西转西北
能見度: 10公里
多云层高于4000英尺

TAF: KITH 291720Z 2918/3018 20010G20KT P6SM BKN025 TEMPO 2919/2923 4SM TSRAGR OVC015CB FM300300 29007KT P6SM BKN025 FM301200 29008KT P6SM BKN040

超过4000个机场的气象观测和天气预报(METAR&TAF报告)。

可查询的气象台以黄色和红色小点在地图上表示。

将鼠标移到小点上方,可查看气象台名称。

然后点击查看天气观测和预报。

如需切换地图:点击带黑十字的绿色按钮放大地图;点击带横线的绿色按钮缩小地图;或者点击绿色箭头查看邻近地区的地图。


METAR-TAF: